Data for 06/24/2017

Time Sea-Level Adjusted Pressure Absolute Pressure Temperature Relative Humidity Dew Point   
(mb) (inHg) (mb) (inHg) (C) (F) (%) (C) (F)
00:05 1026 30.3 856 25.28 12.6 54.6 45 1 33.8
00:10 1026 30.3 856 25.28 12.6 54.6 45 1.1 33.9
00:15 1026 30.3 856 25.28 12.5 54.5 45 0.9 33.7
00:20 1026 30.3 856 25.28 12.5 54.5 45 0.9 33.7
00:25 1027 30.33 856 25.28 12.5 54.4 45 0.9 33.6
00:30 1027 30.33 856 25.28 12.4 54.3 45 0.8 33.4
00:35 1026 30.3 856 25.28 12.3 54.2 45 0.9 33.6
00:40 1027 30.33 856 25.28 12.3 54.1 45 0.8 33.4
00:45 1027 30.33 856 25.28 12.2 54 45 0.7 33.3
00:50 1027 30.33 856 25.28 12.2 54 45 0.7 33.3
00:55 1027 30.33 856 25.28 12.2 53.9 45 0.7 33.2
01:00 1027 30.33 856 25.28 12.1 53.8 46 0.8 33.4
01:05 1027 30.33 856 25.28 12 53.7 45 0.6 33
01:10 1027 30.33 856 25.28 12 53.6 46 0.7 33.3
01:15 1027 30.33 856 25.28 12 53.6 45 0.5 33
01:20 1027 30.33 856 25.28 12 53.5 46 0.8 33.4
01:25 1027 30.33 856 25.28 11.8 53.3 46 0.6 33.1
01:30 1027 30.33 856 25.28 11.7 53.1 47 0.7 33.3
01:35 1027 30.33 856 25.28 11.7 53 46 0.6 33.1
01:40 1027 30.33 856 25.28 11.6 52.9 47 0.8 33.5
01:45 1027 30.33 856 25.28 11.5 52.8 47 0.7 33.3
01:50 1027 30.33 856 25.28 11.5 52.6 48 0.9 33.5
01:55 1027 30.33 856 25.28 11.4 52.5 48 0.8 33.4
02:00 1027 30.33 856 25.28 11.4 52.5 47 0.6 33.1
02:05 1027 30.33 856 25.28 11.3 52.4 48 0.9 33.6
02:10 1027 30.33 856 25.28 11.2 52.2 48 0.7 33.3
02:15 1027 30.33 856 25.28 11.2 52.2 48 0.7 33.3
02:20 1027 30.33 856 25.28 11.2 52.2 48 0.7 33.2
02:25 1027 30.33 856 25.28 11.2 52.1 48 0.6 33.2
02:30 1027 30.33 856 25.28 11.2 52.2 48 0.6 33.1
02:35 1027 30.33 856 25.28 11.2 52.1 48 0.7 33.2
02:40 1027 30.33 856 25.28 11.1 52 48 0.7 33.3
02:45 1027 30.33 856 25.28 11.2 52.1 48 0.6 33
02:50 1027 30.33 856 25.28 11.2 52.1 48 0.6 33.1
02:55 1027 30.33 856 25.28 11.2 52.1 48 0.6 33.1
03:00 1027 30.33 856 25.28 11.1 51.9 48 0.7 33.2
03:05 1027 30.33 856 25.28 11 51.8 49 0.7 33.3
03:10 1027 30.33 856 25.28 10.9 51.6 49 0.7 33.3
03:15 1027 30.33 856 25.28 10.7 51.3 50 0.7 33.3
03:20 1027 30.33 856 25.28 10.7 51.2 50 0.7 33.3
03:25 1027 30.33 856 25.28 10.6 51 51 0.8 33.4
03:30 1027 30.33 856 25.28 10.4 50.8 51 0.8 33.5
03:35 1027 30.33 856 25.28 10.3 50.5 51 0.7 33.2
03:40 1027 30.33 856 25.28 10.3 50.5 51 0.8 33.4
03:45 1027 30.33 856 25.28 10.3 50.5 51 0.7 33.2
03:50 1027 30.33 856 25.28 10.3 50.6 51 0.7 33.3
03:55 1027 30.33 856 25.28 10.3 50.6 51 0.7 33.2
04:00 1027 30.33 856 25.28 10.3 50.5 52 0.8 33.4
04:05 1027 30.33 856 25.28 10.2 50.3 52 0.8 33.4
04:10 1027 30.33 856 25.28 10.1 50.1 52 0.8 33.4
04:15 1027 30.33 856 25.28 10 49.9 53 0.8 33.5
04:20 1027 30.33 856 25.28 9.9 49.7 53 0.9 33.6
04:25 1027 30.33 856 25.28 9.7 49.4 54 0.9 33.5
04:30 1027 30.33 856 25.28 9.4 49 56 1.1 33.9
04:35 1027 30.33 856 25.28 9.1 48.3 57 1 33.8
04:40 1027 30.33 856 25.28 8.8 47.9 58 1 33.7
04:45 1027 30.33 856 25.28 8.7 47.7 58 0.9 33.6
04:50 1027 30.33 856 25.28 8.7 47.6 58 0.9 33.5
04:55 1027 30.33 856 25.28 8.6 47.4 58 0.8 33.5
05:00 1027 30.33 857 25.31 8.5 47.3 58 0.8 33.5
05:05 1027 30.33 857 25.31 8.4 47.1 59 0.8 33.5
05:10 1027 30.33 857 25.31 8.2 46.8 60 0.9 33.5
05:15 1027 30.33 857 25.31 8.1 46.6 60 0.8 33.5
05:20 1027 30.33 857 25.31 8 46.4 60 0.8 33.5
05:25 1028 30.36 857 25.31 7.9 46.3 61 1 33.8
05:30 1028 30.36 857 25.31 7.8 46.1 62 1.1 34
05:35 1028 30.36 857 25.31 7.7 45.9 63 1.1 34
05:40 1028 30.36 857 25.31 7.6 45.6 63 1.1 33.9
05:45 1028 30.36 857 25.31 7.5 45.4 63 1 33.8
05:50 1028 30.36 857 25.31 7.4 45.4 64 1.1 33.9
05:55 1028 30.36 857 25.31 7.4 45.3 64 1.1 34
06:00 1028 30.36 857 25.31 7.6 45.6 64 1.2 34.1
06:05 1028 30.36 857 25.31 7.5 45.6 64 1.1 34
06:10 1028 30.36 857 25.31 7.3 45.2 63 0.8 33.5
06:15 1028 30.36 857 25.31 7.5 45.4 63 0.8 33.5
06:20 1028 30.36 857 25.31 7.6 45.6 62 0.9 33.6
06:25 1028 30.36 857 25.31 7.6 45.7 62 0.9 33.6
06:30 1028 30.36 857 25.31 7.7 45.8 62 0.9 33.6
06:35 1028 30.36 857 25.31 7.8 46 62 1 33.8
06:40 1028 30.36 857 25.31 8 46.3 62 1.1 33.9
06:45 1028 30.36 857 25.31 8.1 46.5 62 1.3 34.3
06:50 1028 30.36 857 25.31 8.2 46.7 62 1.3 34.4
06:55 1028 30.36 857 25.31 8.3 46.9 62 1.4 34.5
07:00 1028 30.36 857 25.31 8.4 47.2 61 1.3 34.3
07:05 1028 30.36 857 25.31 8.6 47.5 60 1.2 34.2
07:10 1028 30.36 857 25.31 8.8 47.9 59 1.3 34.3
07:15 1028 30.36 857 25.31 9.3 48.7 58 1.6 34.9
07:20 1028 30.36 857 25.31 9.6 49.2 57 1.5 34.7
07:25 1028 30.36 857 25.31 10 50.1 57 1.9 35.3
07:30 1028 30.36 857 25.31 10.4 50.7 55 1.8 35.2
07:35 1028 30.36 857 25.31 10.5 50.9 55 1.9 35.4
07:40 1028 30.36 857 25.31 11 51.8 53 1.8 35.2
07:45 1028 30.36 857 25.31 11.6 52.9 52 2.1 35.8
07:50 1028 30.36 857 25.31 12.3 54.1 49 1.8 35.3
07:55 1028 30.36 857 25.31 12.9 55.2 48 2.2 36
08:00 1028 30.36 857 25.31 13.8 56.8 45 2.1 35.8
08:05 1028 30.36 857 25.31 13.8 56.9 46 2.4 36.4
08:10 1028 30.36 857 25.31 13.3 55.9 47 2.3 36.2
08:15 1028 30.36 857 25.31 13.6 56.5 46 2.1 35.9
08:20 1028 30.36 857 25.31 13.6 56.5 46 2.2 35.9
08:25 1028 30.36 857 25.31 13.5 56.3 45 1.8 35.2
08:30 1028 30.36 857 25.31 13.6 56.5 46 2.4 36.3
08:35 1028 30.36 857 25.31 13.6 56.4 47 2.5 36.5
08:40 1028 30.36 857 25.31 13.7 56.6 44 1.6 34.9
08:45 1028 30.36 857 25.31 13.9 57.1 44 2 35.6
08:50 1028 30.36 857 25.31 13.7 56.7 46 2.3 36.1
08:55 1028 30.36 857 25.31 14.3 57.7 44 2.3 36.1
09:00 1028 30.36 857 25.31 14.6 58.3 42 2.1 35.7
09:05 1028 30.36 857 25.31 15.1 59.1 42 2.5 36.5
09:10 1028 30.36 857 25.31 14.5 58 43 2 35.7
09:15 1028 30.36 857 25.31 14.8 58.6 42 2.1 35.8
09:20 1028 30.36 857 25.31 14.6 58.2 41 1.5 34.8
09:25 1028 30.36 857 25.31 14.7 58.4 45 2.9 37.2
09:30 1028 30.36 857 25.31 14.7 58.5 42 2 35.6
09:35 1028 30.36 857 25.31 14.7 58.5 42 2 35.6
09:40 1028 30.36 857 25.31 15.2 59.4 42 2.3 36.2
09:45 1028 30.36 857 25.31 15 58.9 42 2.4 36.3
09:50 1028 30.36 857 25.31 14.8 58.7 41 1.8 35.3
09:55 1028 30.36 857 25.31 15.4 59.7 40 2 35.6
10:00 1028 30.36 857 25.31 15.8 60.5 39 2 35.7
10:05 1028 30.36 857 25.31 16.4 61.4 37 1.9 35.3
10:10 1028 30.36 857 25.31 16.7 62 38 2.4 36.3
10:15 1028 30.36 857 25.31 16.8 62.2 36 1.9 35.4
10:20 1028 30.36 857 25.31 17 62.6 36 2 35.6
10:25 1028 30.36 857 25.31 16.3 61.4 40 2.8 37
10:30 1028 30.36 857 25.31 16.7 62 38 2.2 36
10:35 1028 30.36 857 25.31 17.5 63.5 36 2.5 36.5
10:40 1028 30.36 857 25.31 17.7 63.9 35 2.4 36.3
10:45 1028 30.36 857 25.31 17.5 63.5 36 2.5 36.5
10:50 1028 30.36 857 25.31 17.9 64.2 35 2.5 36.6
10:55 1028 30.36 857 25.31 17.1 62.9 37 2.5 36.5
11:00 1028 30.36 857 25.31 17.3 63.2 35 2 35.6
11:05 1028 30.36 857 25.31 18.9 65.9 31 1.7 35.1
11:10 1028 30.36 857 25.31 19.4 67 31 2.2 36
11:15 1028 30.36 857 25.31 18.9 66 32 1.8 35.3
11:20 1028 30.36 857 25.31 19.2 66.6 33 2.9 37.3
11:25 1028 30.36 857 25.31 19 66.2 35 3.2 37.7
11:30 1028 30.36 857 25.31 18.1 64.6 35 2.6 36.7
11:35 1028 30.36 857 25.31 18.6 65.6 33 2 35.6
11:40 1028 30.36 857 25.31 19.2 66.6 31 1.8 35.3
11:45 1028 30.36 857 25.31 18.3 64.9 31 1.1 34
11:50 1028 30.36 857 25.31 19 66.2 30 1.1 34
11:55 1028 30.36 857 25.31 19.7 67.4 28 0.6 33.1
12:00 1027 30.33 857 25.31 20.3 68.6 29 2 35.6
12:05 1027 30.33 857 25.31 20.1 68.2 30 2.3 36.1
12:10 1027 30.33 857 25.31 19.9 67.7 29 1.7 35
12:15 1027 30.33 857 25.31 20.2 68.3 28 1.1 34
12:20 1027 30.33 857 25.31 20.9 69.5 29 2.2 36
12:25 1027 30.33 857 25.31 21.2 70.1 27 1.6 34.9
12:30 1027 30.33 857 25.31 20.2 68.3 28 1.4 34.6
12:35 1027 30.33 857 25.31 20 68 25 -0.4 31.3
12:40 1027 30.33 857 25.31 20.8 69.4 26 0.8 33.5
12:45 1027 30.33 857 25.31 20 68.1 26 0.1 32.2
12:50 1027 30.33 857 25.31 20.6 69.1 24 -0.3 31.4
12:55 1027 30.33 857 25.31 21.1 69.9 26 0.7 33.3
13:00 1027 30.33 857 25.31 20.9 69.7 26 0.7 33.2
13:05 1027 30.33 857 25.31 21.3 70.4 25 0.9 33.6
13:10 1027 30.33 857 25.31 21.7 71.1 25 1.1 33.9
13:15 1027 30.33 856 25.28 21.5 70.7 24 0.1 32.2
13:20 1027 30.33 856 25.28 21.3 70.4 25 0.8 33.4
13:25 1027 30.33 856 25.28 21.6 70.9 25 1.2 34.1
13:30 1027 30.33 856 25.28 22 71.6 24 0.6 33
13:35 1027 30.33 856 25.28 22.5 72.5 23 0.7 33.3
13:40 1027 30.33 856 25.28 22.1 71.7 25 1.1 34
13:45 1027 30.33 856 25.28 22.2 72 22 -0.2 31.6
13:50 1027 30.33 856 25.28 22.9 73.3 21 -0.4 31.3
13:55 1027 30.33 856 25.28 22.3 72.2 21 -0.6 30.8
14:00 1027 30.33 856 25.28 23.1 73.5 19 -1.5 29.3
14:05 1027 30.33 856 25.28 22.8 73 21 -0.2 31.7
14:10 1027 30.33 856 25.28 22.5 72.4 22 0.1 32.1
14:15 1027 30.33 856 25.28 22.5 72.5 22 -0.4 31.4
14:20 1027 30.33 856 25.28 21.6 70.9 22 -0.7 30.7
14:25 1027 30.33 856 25.28 21.8 71.3 20 -1.6 29.1
14:30 1027 30.33 856 25.28 22.6 72.8 19 -1.7 28.9
14:35 1027 30.33 856 25.28 22.6 72.6 20 -1.1 30
14:40 1027 30.33 856 25.28 22.6 72.6 19 -2 28.4
14:45 1027 30.33 856 25.28 23.3 73.9 19 -1.6 29.2
14:50 1027 30.33 856 25.28 22.3 72.1 20 -1.7 29
14:55 1027 30.33 856 25.28 21.8 71.2 21 -1.1 30
15:00 1027 30.33 856 25.28 21.5 70.7 22 -1 30.2
15:05 1027 30.33 856 25.28 22.7 72.8 18 -2.6 27.4
15:10 1027 30.33 856 25.28 23.6 74.4 16 -3.8 25.2
15:15 1027 30.33 856 25.28 23.5 74.3 15 -4.6 23.7
15:20 1027 30.33 856 25.28 24 75.2 17 -2.2 28
15:25 1026 30.3 856 25.28 23.3 73.9 18 -2.5 27.5
15:30 1026 30.3 856 25.28 23.7 74.7 14 -5.1 22.8
15:35 1026 30.3 856 25.28 23.8 74.9 15 -4.4 24.1
15:40 1026 30.3 856 25.28 23.7 74.7 15 -3.9 24.9
15:45 1026 30.3 856 25.28 21.8 71.3 18 -3.1 26.4
15:50 1026 30.3 856 25.28 22.2 72 17 -3.7 25.3
15:55 1026 30.3 856 25.28 23.5 74.3 17 -2.8 27
16:00 1026 30.3 856 25.28 23.5 74.2 15 -4.7 23.6
16:05 1026 30.3 856 25.28 23.7 74.7 15 -4.1 24.6
16:10 1026 30.3 856 25.28 23.9 75.1 15 -4.2 24.4
16:15 1026 30.3 856 25.28 24.5 76.1 15 -3.8 25.1
16:20 1026 30.3 856 25.28 24.4 75.8 15 -3.6 25.6
16:25 1026 30.3 856 25.28 24.1 75.3 15 -4.3 24.3
16:30 1026 30.3 856 25.28 23.8 74.9 15 -3.8 25.2
16:35 1026 30.3 856 25.28 23.7 74.7 15 -4.3 24.2
16:40 1026 30.3 856 25.28 23.5 74.2 15 -4.4 24.1
16:45 1026 30.3 855 25.25 23.6 74.6 17 -2.8 27
16:50 1026 30.3 856 25.28 23.2 73.7 15 -4.7 23.5
16:55 1026 30.3 855 25.25 23.4 74.1 15 -4.8 23.3
17:00 1026 30.3 856 25.28 23.8 74.8 14 -4.8 23.4
17:05 1026 30.3 855 25.25 24.1 75.4 14 -4.9 23.2
17:10 1026 30.3 855 25.25 23.9 75.1 14 -5 23.1
17:15 1026 30.3 855 25.25 23.7 74.7 13 -5.8 21.6
17:20 1026 30.3 855 25.25 24 75.2 13 -5.7 21.7
17:25 1026 30.3 855 25.25 23.8 74.8 13 -6 21.2
17:30 1026 30.3 855 25.25 23.6 74.5 13 -6 21.2
17:35 1026 30.3 855 25.25 24 75.3 13 -5.7 21.7
17:40 1026 30.3 855 25.25 24.2 75.6 14 -4.8 23.4
17:45 1026 30.3 855 25.25 23.5 74.2 17 -2.8 26.9
17:50 1026 30.3 855 25.25 23.2 73.8 15 -4.6 23.7
17:55 1026 30.3 855 25.25 23.9 75.1 15 -4.4 24
18:00 1026 30.3 855 25.25 24 75.2 16 -3.6 25.6
18:05 1026 30.3 855 25.25 23.7 74.7 16 -3.2 26.2
18:10 1026 30.3 855 25.25 23.9 75.1 15 -3.9 25
18:15 1026 30.3 855 25.25 23.5 74.3 17 -3.1 26.5
18:20 1026 30.3 855 25.25 22.8 73 17 -3.1 26.4
18:25 1026 30.3 855 25.25 23.3 74 16 -3.5 25.7
18:30 1026 30.3 855 25.25 23.5 74.4 17 -2.9 26.8
18:35 1026 30.3 855 25.25 23.5 74.4 17 -2.9 26.8
18:40 1026 30.3 855 25.25 23.6 74.5 17 -2.7 27.2
18:45 1026 30.3 855 25.25 23.4 74.1 19 -1.6 29.2
18:50 1026 30.3 855 25.25 22.6 72.7 18 -2.8 27
18:55 1026 30.3 855 25.25 22.9 73.3 18 -2.6 27.3
19:00 1026 30.3 855 25.25 23.2 73.8 18 -2 28.4
19:05 1026 30.3 855 25.25 23.6 74.5 19 -1.2 29.8
19:10 1026 30.3 855 25.25 23.6 74.5 18 -1.7 28.9
19:15 1026 30.3 855 25.25 23 73.4 19 -1.8 28.8
19:20 1026 30.3 855 25.25 22.5 72.4 19 -1.8 28.8
19:25 1026 30.3 855 25.25 22.7 72.9 19 -2.1 28.3
19:30 1026 30.3 855 25.25 22.4 72.3 20 -1.5 29.3
19:35 1026 30.3 855 25.25 21.7 71 21 -1.2 29.9
19:40 1026 30.3 855 25.25 21.6 70.9 21 -1.1 29.9
19:45 1026 30.3 855 25.25 21.6 70.9 21 -1.3 29.7
19:50 1026 30.3 855 25.25 21.6 70.9 21 -1.5 29.3
19:55 1026 30.3 855 25.25 21.3 70.3 22 -0.9 30.4
20:00 1026 30.3 855 25.25 21.2 70.1 21 -1.7 29
20:05 1026 30.3 855 25.25 21.1 70 22 -1.2 29.9
20:10 1026 30.3 855 25.25 21.1 69.9 23 -0.5 31.1
20:15 1026 30.3 855 25.25 21.2 70.1 22 -1.1 30.1
20:20 1026 30.3 855 25.25 21.1 70 24 -0.4 31.3
20:25 1026 30.3 855 25.25 21 69.7 24 -0.4 31.2
20:30 1026 30.3 855 25.25 20.8 69.5 24 -0.3 31.4
20:35 1026 30.3 855 25.25 20.6 69 27 1 33.8
20:40 1026 30.3 855 25.25 20.1 68.2 30 2.1 35.8
20:45 1026 30.3 855 25.25 19.7 67.5 30 1.8 35.2
20:50 1026 30.3 855 25.25 19.1 66.4 30 1.4 34.5
20:55 1026 30.3 855 25.25 18.7 65.6 31 1.5 34.6
21:00 1026 30.3 856 25.28 18.4 65.2 32 1.7 35.1
21:05 1026 30.3 856 25.28 18.1 64.6 33 1.6 34.9
21:10 1026 30.3 856 25.28 17.9 64.1 33 1.4 34.4
21:15 1026 30.3 856 25.28 17.7 63.8 33 1.2 34.1
21:20 1027 30.33 856 25.28 17.4 63.4 33 1.1 34
21:25 1027 30.33 856 25.28 17.2 63 34 1.3 34.3
21:30 1027 30.33 856 25.28 17 62.7 34 1.2 34.1
21:35 1027 30.33 856 25.28 16.9 62.4 34 1.2 34.2
21:40 1027 30.33 856 25.28 16.7 62.1 35 1.3 34.3
21:45 1027 30.33 856 25.28 16.6 61.8 35 1.2 34.2
21:50 1027 30.33 856 25.28 16.5 61.6 36 1.3 34.3
21:55 1027 30.33 856 25.28 16.4 61.5 35 1.1 34
22:00 1027 30.33 856 25.28 16.3 61.4 36 1.2 34.1
22:05 1027 30.33 856 25.28 16.2 61.2 36 1.1 34
22:10 1027 30.33 856 25.28 16.1 61 36 1.3 34.3
22:15 1027 30.33 856 25.28 16 60.9 36 1.2 34.1
22:20 1027 30.33 856 25.28 15.9 60.7 36 1.1 34.1
22:25 1027 30.33 856 25.28 15.9 60.5 37 1.2 34.2
22:30 1027 30.33 856 25.28 15.7 60.3 37 1.2 34.2
22:35 1027 30.33 856 25.28 15.7 60.2 37 1 33.9
22:40 1027 30.33 856 25.28 15.6 60.2 37 1 33.8
22:45 1027 30.33 856 25.28 15.6 60.2 36 0.9 33.6
22:50 1027 30.33 857 25.31 15.6 60.1 36 0.8 33.4
22:55 1027 30.33 857 25.31 15.6 60 36 0.7 33.3
23:00 1027 30.33 857 25.31 15.5 59.9 37 0.9 33.6
23:05 1027 30.33 856 25.28 15.4 59.8 37 0.9 33.6
23:10 1027 30.33 856 25.28 15.4 59.8 36 0.7 33.2
23:15 1027 30.33 856 25.28 15.5 59.8 36 0.4 32.8
23:20 1027 30.33 856 25.28 15.5 59.8 36 0.6 33.2
23:25 1027 30.33 856 25.28 15.2 59.4 36 0.3 32.5
23:30 1027 30.33 857 25.31 15.1 59.2 36 0.3 32.5
23:35 1027 30.33 856 25.28 15.1 59.2 36 0.1 32.2
23:40 1027 30.33 856 25.28 15.1 59.2 35 0 32
23:45 1027 30.33 857 25.31 15 59 36 0 32
23:50 1027 30.33 856 25.28 14.9 58.8 36 0.2 32.3
23:55 1027 30.33 856 25.28 14.8 58.6 37 0.2 32.4
24:00 1027 30.33 856 25.28 14.6 58.4 37 0 32